This is the latest recevied weather packets stored in our database for station/object WC4PEM. If no packets are shown the sender has not sent any weather packets the latest 10 day(s).
| Time | Temp. | Humidity | Pressure | Rain* | Wind** | Luminosity | Snow |
|---|---|---|---|---|---|---|---|
| 1777825473 | 22.22° C | 77% | 1017.4 hPa | 0 mm | - | - | - |
| 1777825173 | 22.22° C | 78% | 1017.4 hPa | 0 mm | - | - | - |
| 1777825120 | 22.22° C | 77% | 1017.5 hPa | 0 mm | - | - | - |
| 1777824873 | 22.22° C | 77% | 1017.5 hPa | 0 mm | - | - | - |
| 1777824573 | 22.22° C | 77% | 1017.6 hPa | 0 mm | - | - | - |
| 1777824273 | 22.22° C | 76% | 1017.6 hPa | 0 mm | - | - | - |
| 1777824035 | 22.22° C | 77% | 1017.6 hPa | 0 mm | - | - | - |
| 1777823973 | 22.22° C | 77% | 1017.6 hPa | 0 mm | - | - | - |
| 1777823673 | 22.78° C | 75% | 1017.5 hPa | 0 mm | - | - | - |
| 1777823373 | 22.78° C | 77% | 1017.4 hPa | 0 mm | - | - | - |
| 1777823186 | 21.67° C | 81% | 1017.4 hPa | 0 mm | - | - | - |
| 1777823073 | 22.22° C | 78% | 1017.3 hPa | 0 mm | - | - | - |
| 1777822773 | 21.67° C | 79% | 1017.4 hPa | 0 mm | - | - | - |
| 1777822473 | 21.67° C | 79% | 1017.5 hPa | 0 mm | - | - | - |
| 1777822213 | 21.67° C | 79% | 1017.5 hPa | 0 mm | - | - | - |
| 1777822173 | 21.67° C | 79% | 1017.5 hPa | 0 mm | - | - | - |
| 1777821873 | 21.67° C | 79% | 1017.5 hPa | 0 mm | - | - | - |
| 1777821573 | 21.67° C | 79% | 1017.4 hPa | 0 mm | - | - | - |
| 1777821273 | 21.67° C | 81% | 1017.4 hPa | 0 mm | - | - | - |
| 1777821166 | 20.56° C | 81% | 1017.7 hPa | 0 mm | - | - | - |
| 1777820973 | 21.11° C | 82% | 1017.6 hPa | 0 mm | - | - | - |
| 1777820673 | 20.56° C | 82% | 1017.7 hPa | 0 mm | - | - | - |
| 1777820373 | 20.56° C | 81% | 1017.7 hPa | 0 mm | - | - | - |
| 1777820073 | 20.56° C | 82% | 1017.6 hPa | 0 mm | - | - | - |
| 1777819773 | 20.56° C | 82% | 1017.6 hPa | 0 mm | - | - | - |
* Rain latest hour (hover to see other rain measurements)
** Current wind speed in m/s (hover to see current wind gust speed)